Impacts TAF Board INFO
FOR SITUATIONAL AWARENESS. NOT TO BE USED FOR FLIGHT PLANNING PURPOSES.
IDs:

KLGA - New York/La Guardia, NY, US

Issued at 0835 UTC 18 Dec 2017
Updated at 1049 UTC 18 Dec 2017
Potential Impact None Slight Moderate High
Time<<19/11Z 19/12Z 19/13Z 19/14Z 19/15Z 19/16Z 19/17Z 19/18Z 19/19Z 19/20Z 19/21Z 19/22Z 19/23Z
Type PRVL
VIS >6
CIG --
Cover SCT
FltCat VFR
WX --
WDir 270
WSpd 8
WGst --

Raw TAF
KLGA 180835Z 1809/1912 07006KT P6SM -SHRA OVC015
  FM181500 VRB04KT P6SM OVC010
  FM181800 30006KT P6SM SCT015 BKN050
  FM182200 26007KT P6SM BKN070
  FM190600 27008KT P6SM SCT050


METAR Board
Radar Display
Forecast Discussion

FOR SITUATIONAL AWARENESS. NOT TO BE USED FOR FLIGHT PLANNING PURPOSES.